createdAt,value
2023-01-31T00:00:37.571Z,77.97
2023-01-31T00:01:37.455Z,78.93
2023-01-31T00:02:37.590Z,78.89
2023-01-31T00:03:37.402Z,78.86
2023-01-31T00:04:37.406Z,77.69
2023-01-31T00:05:37.206Z,77.00
2023-01-31T00:06:37.352Z,78.17
2023-01-31T00:07:37.471Z,78.28
2023-01-31T00:08:37.003Z,78.58
2023-01-31T00:09:37.323Z,79.41
2023-01-31T00:10:37.293Z,79.44
2023-01-31T00:11:37.550Z,79.30
2023-01-31T00:12:37.191Z,79.44
2023-01-31T00:13:37.330Z,79.30
2023-01-31T00:14:37.245Z,79.55
2023-01-31T00:15:37.327Z,79.41
2023-01-31T00:16:36.889Z,79.41
2023-01-31T00:17:37.041Z,79.72
2023-01-31T00:18:37.029Z,79.72
2023-01-31T00:19:37.206Z,79.30
2023-01-31T00:20:37.053Z,79.20
2023-01-31T00:21:37.308Z,79.20
2023-01-31T00:22:37.104Z,78.96
2023-01-31T00:23:37.074Z,79.30
2023-01-31T00:24:37.084Z,79.06
2023-01-31T00:25:37.090Z,78.34
2023-01-31T00:26:37.340Z,79.34
2023-01-31T00:27:37.013Z,79.55
2023-01-31T00:28:37.012Z,79.30
2023-01-31T00:29:37.127Z,78.75
2023-01-31T00:30:36.949Z,78.03
2023-01-31T00:31:37.102Z,79.48
2023-01-31T00:32:37.000Z,80.86
2023-01-31T00:33:36.809Z,81.48
2023-01-31T00:34:37.012Z,80.27
2023-01-31T00:35:36.812Z,80.16
2023-01-31T00:36:37.775Z,80.06
2023-01-31T00:37:36.926Z,79.51
2023-01-31T00:38:36.882Z,79.44
2023-01-31T00:39:36.935Z,79.44
2023-01-31T00:40:36.807Z,80.41
2023-01-31T00:41:37.236Z,80.58
2023-01-31T00:42:36.902Z,80.10
2023-01-31T00:43:36.761Z,81.34
2023-01-31T00:44:36.781Z,80.62
2023-01-31T00:45:36.946Z,81.03
2023-01-31T00:46:36.756Z,80.93
2023-01-31T00:47:36.631Z,81.13
2023-01-31T00:48:36.387Z,80.27
2023-01-31T00:49:36.920Z,80.47
2023-01-31T00:50:36.762Z,80.72
2023-01-31T00:51:36.631Z,81.27
2023-01-31T00:52:36.824Z,81.89
2023-01-31T00:53:36.693Z,81.99
2023-01-31T00:54:37.101Z,81.96
2023-01-31T00:55:36.627Z,81.54
2023-01-31T00:56:36.304Z,80.82
2023-01-31T00:57:36.638Z,81.82
2023-01-31T00:58:37.143Z,82.51
2023-01-31T00:59:36.885Z,82.55
2023-01-31T01:00:36.986Z,82.34
2023-01-31T01:01:36.971Z,82.96
2023-01-31T01:02:36.489Z,82.51
2023-01-31T01:03:36.856Z,82.30
2023-01-31T01:04:36.948Z,82.30
2023-01-31T01:05:36.575Z,82.30
2023-01-31T01:06:36.889Z,82.30
2023-01-31T01:07:36.516Z,82.71
2023-01-31T01:08:36.419Z,81.99
2023-01-31T01:09:36.326Z,82.30
2023-01-31T01:10:36.631Z,82.40
2023-01-31T01:11:36.743Z,82.55
2023-01-31T01:12:36.482Z,83.72
2023-01-31T01:13:36.483Z,84.30
2023-01-31T01:14:36.533Z,83.64
2023-01-31T01:15:43.627Z,82.98
2023-01-31T01:17:52.430Z,83.58
2023-01-31T01:18:52.398Z,84.20
2023-01-31T01:19:52.418Z,83.68
2023-01-31T01:20:52.378Z,83.58
2023-01-31T01:21:52.370Z,83.85
2023-01-31T01:22:52.399Z,83.89
2023-01-31T01:23:52.350Z,83.33
2023-01-31T01:24:52.362Z,83.13
2023-01-31T01:25:52.332Z,83.64
2023-01-31T01:26:52.384Z,82.57
2023-01-31T01:27:52.316Z,82.20
2023-01-31T01:28:52.329Z,82.40
2023-01-31T01:29:52.300Z,84.44
2023-01-31T01:30:52.362Z,85.37
2023-01-31T01:31:52.331Z,84.36
2023-01-31T01:32:52.314Z,83.44
2023-01-31T01:33:52.251Z,83.78
2023-01-31T01:34:52.253Z,84.96
2023-01-31T01:35:52.223Z,85.17
2023-01-31T01:36:52.301Z,84.72
2023-01-31T01:37:52.210Z,84.61
2023-01-31T01:38:52.183Z,84.30
2023-01-31T01:39:52.169Z,84.65
2023-01-31T01:40:52.170Z,84.20
2023-01-31T01:41:52.156Z,84.96
2023-01-31T01:42:52.156Z,85.02
2023-01-31T01:43:52.186Z,84.86
2023-01-31T01:44:52.109Z,85.47
2023-01-31T01:45:52.158Z,85.13
2023-01-31T01:46:52.083Z,84.51
2023-01-31T01:47:52.071Z,84.75
2023-01-31T01:48:52.061Z,84.51
2023-01-31T01:49:52.057Z,83.95
2023-01-31T01:50:52.049Z,84.13
2023-01-31T01:51:52.059Z,84.51
2023-01-31T01:52:52.012Z,85.27
2023-01-31T01:53:52.021Z,85.72
2023-01-31T01:54:51.999Z,85.89
2023-01-31T01:55:51.977Z,85.06
2023-01-31T01:56:51.972Z,85.68
2023-01-31T01:57:51.994Z,85.47
2023-01-31T01:58:51.943Z,86.24
2023-01-31T01:59:51.937Z,85.68
2023-01-31T02:00:51.974Z,85.58
2023-01-31T02:01:51.931Z,85.93
2023-01-31T02:02:51.905Z,85.78
2023-01-31T02:03:51.906Z,85.06
2023-01-31T02:04:51.917Z,85.47
2023-01-31T02:05:51.885Z,85.83
2023-01-31T02:06:51.862Z,86.34
2023-01-31T02:07:51.834Z,86.34
2023-01-31T02:08:51.887Z,85.37
2023-01-31T02:09:51.853Z,84.72
2023-01-31T02:10:51.816Z,85.41
2023-01-31T02:11:51.783Z,85.93
2023-01-31T02:12:51.785Z,85.58
2023-01-31T02:13:51.772Z,85.58
2023-01-31T02:14:51.829Z,85.17
2023-01-31T02:15:51.735Z,84.65
2023-01-31T02:16:51.782Z,84.86
2023-01-31T02:17:51.725Z,85.17
2023-01-31T02:18:51.726Z,84.51
2023-01-31T02:19:51.708Z,83.78
2023-01-31T02:20:51.718Z,84.44
2023-01-31T02:21:51.666Z,85.83
2023-01-31T02:22:51.664Z,85.68
2023-01-31T02:23:51.659Z,85.06
2023-01-31T02:24:51.643Z,84.75
2023-01-31T02:25:51.695Z,84.75
2023-01-31T02:26:51.643Z,85.31
2023-01-31T02:27:51.604Z,86.49
2023-01-31T02:28:51.589Z,86.55
2023-01-31T02:29:51.646Z,86.44
2023-01-31T02:30:51.597Z,85.93
2023-01-31T02:31:51.627Z,85.78
2023-01-31T02:32:51.547Z,85.93
2023-01-31T02:33:51.564Z,86.76
2023-01-31T02:34:51.526Z,87.17
2023-01-31T02:35:51.534Z,87.17
2023-01-31T02:36:51.487Z,86.86
2023-01-31T02:37:51.516Z,87.00
2023-01-31T02:38:51.468Z,87.17
2023-01-31T02:39:51.478Z,86.51
2023-01-31T02:40:51.463Z,85.78
2023-01-31T02:41:51.443Z,86.03
2023-01-31T02:42:51.429Z,87.23
2023-01-31T02:43:51.454Z,86.51
2023-01-31T02:44:51.417Z,85.44
2023-01-31T02:45:51.422Z,85.44
2023-01-31T02:46:51.383Z,85.68
2023-01-31T02:47:51.391Z,86.51
2023-01-31T02:48:51.372Z,86.71
2023-01-31T02:49:51.386Z,85.95
2023-01-31T02:50:51.327Z,86.34
2023-01-31T02:51:51.329Z,86.71
2023-01-31T02:52:51.309Z,86.30
2023-01-31T02:53:51.310Z,86.51
2023-01-31T02:54:51.289Z,87.07
2023-01-31T02:55:51.313Z,86.82
2023-01-31T02:56:51.278Z,86.41
2023-01-31T02:57:51.257Z,86.41
2023-01-31T02:58:51.273Z,86.55
2023-01-31T02:59:51.242Z,86.86
2023-01-31T03:00:51.286Z,86.82
2023-01-31T03:01:51.214Z,85.85
2023-01-31T03:02:51.209Z,84.67
2023-01-31T03:03:51.179Z,84.30
2023-01-31T03:04:51.170Z,84.72
2023-01-31T03:05:51.182Z,84.61
2023-01-31T03:06:51.181Z,84.92
2023-01-31T03:07:51.150Z,84.51
2023-01-31T03:08:51.138Z,84.55
2023-01-31T03:09:51.119Z,85.17
2023-01-31T03:10:51.124Z,85.83
2023-01-31T03:11:51.102Z,85.93
2023-01-31T03:12:51.100Z,85.62
2023-01-31T03:13:51.071Z,85.62
2023-01-31T03:14:51.061Z,85.37
2023-01-31T03:15:51.060Z,85.62
2023-01-31T03:16:51.102Z,85.93
2023-01-31T03:17:51.053Z,85.83
2023-01-31T03:18:51.011Z,85.83
2023-01-31T03:19:51.009Z,85.68
2023-01-31T03:20:50.994Z,84.96
2023-01-31T03:21:50.972Z,84.41
2023-01-31T03:22:50.970Z,84.34
2023-01-31T03:23:50.980Z,85.52
2023-01-31T03:24:50.943Z,85.37
2023-01-31T03:25:50.935Z,85.17
2023-01-31T03:26:51.005Z,84.51
2023-01-31T03:27:50.903Z,83.64
2023-01-31T03:28:50.899Z,82.68
2023-01-31T03:29:50.922Z,81.61
2023-01-31T03:30:50.937Z,81.20
2023-01-31T03:31:50.927Z,82.10
2023-01-31T03:32:50.890Z,82.96
2023-01-31T03:33:50.837Z,82.98
2023-01-31T03:34:50.852Z,81.92
2023-01-31T03:35:50.843Z,81.34
2023-01-31T03:36:50.802Z,81.75
2023-01-31T03:37:50.782Z,81.13
2023-01-31T03:38:50.784Z,82.10
2023-01-31T03:39:50.772Z,83.41
2023-01-31T03:40:50.754Z,83.78
2023-01-31T03:41:50.793Z,84.09
2023-01-31T03:42:50.746Z,83.48
2023-01-31T03:43:50.723Z,82.47
2023-01-31T03:44:50.731Z,82.10
2023-01-31T03:45:50.715Z,82.71
2023-01-31T03:46:50.694Z,82.47
2023-01-31T03:47:50.731Z,81.89
2023-01-31T03:48:50.655Z,81.75
2023-01-31T03:49:50.652Z,80.89
2023-01-31T03:50:50.653Z,81.17
2023-01-31T03:51:50.625Z,82.20
2023-01-31T03:52:50.652Z,82.30
2023-01-31T03:53:50.604Z,81.99
2023-01-31T03:54:50.608Z,81.44
2023-01-31T03:55:50.575Z,81.65
2023-01-31T03:56:50.620Z,81.23
2023-01-31T03:57:50.554Z,82.03
2023-01-31T03:58:50.618Z,82.65
2023-01-31T03:59:50.546Z,82.71
2023-01-31T04:00:50.527Z,82.37
2023-01-31T04:01:50.559Z,81.65
2023-01-31T04:02:50.511Z,81.09
2023-01-31T04:03:50.484Z,80.58
2023-01-31T04:04:50.495Z,81.44
2023-01-31T04:05:50.466Z,82.40
2023-01-31T04:06:50.489Z,82.37
2023-01-31T04:07:50.464Z,82.06
2023-01-31T04:08:50.436Z,82.92
2023-01-31T04:09:50.428Z,83.78
2023-01-31T04:10:50.434Z,83.99
2023-01-31T04:11:50.397Z,83.64
2023-01-31T04:12:50.397Z,82.78
2023-01-31T04:13:50.381Z,83.06
2023-01-31T04:14:50.389Z,83.78
2023-01-31T04:15:50.462Z,84.41
2023-01-31T04:16:50.387Z,83.89
2023-01-31T04:17:50.362Z,83.64
2023-01-31T04:18:50.317Z,83.23
2023-01-31T04:19:50.309Z,82.78
2023-01-31T04:20:50.325Z,82.26
2023-01-31T04:21:50.302Z,82.26
2023-01-31T04:22:50.288Z,81.71
2023-01-31T04:23:50.262Z,80.99
2023-01-31T04:24:50.286Z,80.44
2023-01-31T04:25:50.238Z,80.02
2023-01-31T04:26:50.280Z,79.47
2023-01-31T04:27:50.221Z,78.86
2023-01-31T04:28:50.244Z,78.96
2023-01-31T04:29:50.199Z,78.58
2023-01-31T04:30:50.183Z,79.65
2023-01-31T04:31:50.281Z,79.86
2023-01-31T04:32:50.245Z,81.07
2023-01-31T04:33:50.152Z,81.58
2023-01-31T04:34:50.154Z,81.48
2023-01-31T04:35:50.125Z,81.03
2023-01-31T04:36:50.109Z,80.16
2023-01-31T04:37:50.120Z,79.55
2023-01-31T04:38:50.088Z,79.03
2023-01-31T04:39:50.097Z,78.93
2023-01-31T04:40:50.070Z,78.93
2023-01-31T04:41:50.054Z,78.52
2023-01-31T04:42:50.051Z,79.17
2023-01-31T04:43:50.063Z,79.58
2023-01-31T04:44:50.086Z,80.24
2023-01-31T04:45:50.032Z,80.76
2023-01-31T04:46:50.020Z,81.41
2023-01-31T04:47:49.987Z,80.65
2023-01-31T04:48:49.973Z,80.90
2023-01-31T04:49:49.997Z,80.65
2023-01-31T04:50:49.941Z,80.18
2023-01-31T04:51:49.985Z,81.35
2023-01-31T04:52:49.931Z,81.62
2023-01-31T04:53:49.922Z,81.51
2023-01-31T04:54:49.926Z,80.90
2023-01-31T04:55:50.111Z,80.83
2023-01-31T04:56:49.907Z,81.14
2023-01-31T04:57:49.885Z,81.04
2023-01-31T04:58:49.853Z,81.24
2023-01-31T04:59:49.842Z,81.45
2023-01-31T05:00:49.879Z,81.14
2023-01-31T05:01:49.845Z,80.62
2023-01-31T05:02:49.928Z,80.62
2023-01-31T05:03:49.791Z,81.94
2023-01-31T05:04:49.803Z,82.42
2023-01-31T05:05:49.781Z,82.10
2023-01-31T05:06:49.782Z,81.94
2023-01-31T05:07:49.761Z,82.87
2023-01-31T05:08:49.743Z,82.76
2023-01-31T05:09:49.732Z,82.97
2023-01-31T05:10:49.715Z,83.28
2023-01-31T05:11:49.693Z,83.18
2023-01-31T05:12:49.731Z,82.35
2023-01-31T05:13:49.677Z,82.45
2023-01-31T05:14:49.663Z,82.50
2023-01-31T05:15:49.681Z,82.80
2023-01-31T05:16:49.696Z,82.50
2023-01-31T05:17:49.633Z,82.70
2023-01-31T05:18:49.663Z,82.70
2023-01-31T05:19:49.605Z,82.70
2023-01-31T05:20:49.612Z,83.11
2023-01-31T05:21:49.581Z,82.90
2023-01-31T05:22:49.584Z,83.22
2023-01-31T05:23:49.598Z,83.11
2023-01-31T05:24:49.579Z,82.50
2023-01-31T05:25:49.546Z,82.60
2023-01-31T05:26:49.552Z,82.29
2023-01-31T05:27:49.656Z,82.43
2023-01-31T05:28:49.522Z,82.53
2023-01-31T05:29:49.498Z,83.29
2023-01-31T05:30:49.517Z,84.33
2023-01-31T05:31:49.525Z,84.43
2023-01-31T05:32:49.465Z,84.84
2023-01-31T05:33:49.463Z,84.68
2023-01-31T05:34:49.443Z,84.78
2023-01-31T05:35:49.442Z,85.26
2023-01-31T05:36:49.445Z,84.64
2023-01-31T05:37:49.406Z,84.95
2023-01-31T05:38:49.395Z,84.74
2023-01-31T05:39:49.417Z,84.58
2023-01-31T05:40:49.385Z,84.68
2023-01-31T05:41:49.374Z,84.68
2023-01-31T05:42:49.389Z,84.99
2023-01-31T05:43:49.336Z,84.88
2023-01-31T05:44:49.367Z,84.72
2023-01-31T05:45:49.439Z,86.17
2023-01-31T05:46:49.324Z,86.58
2023-01-31T05:47:49.341Z,86.89
2023-01-31T05:48:49.354Z,86.07
2023-01-31T05:49:49.280Z,85.55
2023-01-31T05:50:49.274Z,85.19
2023-01-31T05:51:49.294Z,84.68
2023-01-31T05:52:49.246Z,84.68
2023-01-31T05:53:49.233Z,84.16
2023-01-31T05:54:49.246Z,84.72
2023-01-31T05:55:49.206Z,85.24
2023-01-31T05:56:49.196Z,85.75
2023-01-31T05:57:49.211Z,85.24
2023-01-31T05:58:49.175Z,85.48
2023-01-31T05:59:49.223Z,86.45
2023-01-31T06:00:49.149Z,88.32
2023-01-31T06:01:49.206Z,87.97
2023-01-31T06:02:49.218Z,88.01
2023-01-31T06:03:49.140Z,87.45
2023-01-31T06:04:49.112Z,87.90
2023-01-31T06:05:49.149Z,87.45
2023-01-31T06:06:49.090Z,87.28
2023-01-31T06:07:49.069Z,88.01
2023-01-31T06:08:49.063Z,88.53
2023-01-31T06:09:49.062Z,88.63
2023-01-31T06:10:49.037Z,88.18
2023-01-31T06:11:49.064Z,87.59
2023-01-31T06:12:49.025Z,87.70
2023-01-31T06:13:49.025Z,87.63
2023-01-31T06:14:48.991Z,88.42
2023-01-31T06:15:48.979Z,88.42
2023-01-31T06:16:49.049Z,87.90
2023-01-31T06:17:48.998Z,88.01
2023-01-31T06:18:48.949Z,88.21
2023-01-31T06:19:48.940Z,87.63
2023-01-31T06:20:48.956Z,88.46
2023-01-31T06:21:48.910Z,89.19
2023-01-31T06:22:48.912Z,88.46
2023-01-31T06:23:48.914Z,88.78
2023-01-31T06:24:48.895Z,88.88
2023-01-31T06:25:48.886Z,88.78
2023-01-31T06:26:48.985Z,88.73
2023-01-31T06:27:48.854Z,88.84
2023-01-31T06:28:48.873Z,88.53
2023-01-31T06:29:48.822Z,88.73
2023-01-31T06:30:48.883Z,88.21
2023-01-31T06:31:48.867Z,87.90
2023-01-31T06:32:48.794Z,88.01
2023-01-31T06:33:48.811Z,88.18
2023-01-31T06:34:48.786Z,87.66
2023-01-31T06:35:48.753Z,87.04
2023-01-31T06:36:48.770Z,86.97
2023-01-31T06:37:48.800Z,87.22
2023-01-31T06:38:48.728Z,88.21
2023-01-31T06:39:48.754Z,87.59
2023-01-31T06:40:48.700Z,87.87
2023-01-31T06:41:48.690Z,87.66
2023-01-31T06:42:48.689Z,87.04
2023-01-31T06:43:48.660Z,86.89
2023-01-31T06:44:48.674Z,86.37
2023-01-31T06:45:48.707Z,86.17
2023-01-31T06:46:48.690Z,85.96
2023-01-31T06:47:48.641Z,85.71
2023-01-31T06:48:48.620Z,85.40
2023-01-31T06:49:48.632Z,85.30
2023-01-31T06:50:49.022Z,84.68
2023-01-31T06:51:48.604Z,84.82
2023-01-31T06:52:48.570Z,84.99
2023-01-31T06:53:48.585Z,84.72
2023-01-31T06:54:48.545Z,84.61
2023-01-31T06:55:48.573Z,85.79
2023-01-31T06:56:48.642Z,86.00
2023-01-31T06:57:48.557Z,86.21
2023-01-31T06:58:48.637Z,86.31
2023-01-31T06:59:48.487Z,86.00
2023-01-31T07:00:48.512Z,87.24
2023-01-31T07:01:48.640Z,87.24
2023-01-31T07:02:48.506Z,87.55
2023-01-31T07:03:48.452Z,87.66
2023-01-31T07:04:48.507Z,87.20
2023-01-31T07:05:48.444Z,86.58
2023-01-31T07:06:48.468Z,86.93
2023-01-31T07:07:48.464Z,87.55
2023-01-31T07:08:48.419Z,87.62
2023-01-31T07:09:48.386Z,87.14
2023-01-31T07:10:48.394Z,87.35
2023-01-31T07:11:48.394Z,87.87
2023-01-31T07:12:48.369Z,87.93
2023-01-31T07:13:48.364Z,86.89
2023-01-31T07:14:48.343Z,86.99
2023-01-31T07:15:49.080Z,87.20
2023-01-31T07:16:48.440Z,86.27
2023-01-31T07:17:48.345Z,87.30
2023-01-31T07:18:48.313Z,87.10
2023-01-31T07:19:48.391Z,86.96
2023-01-31T07:20:48.331Z,86.62
2023-01-31T07:21:48.297Z,87.62
2023-01-31T07:22:48.265Z,87.10
2023-01-31T07:23:48.225Z,87.20
2023-01-31T07:24:48.273Z,86.75
2023-01-31T07:25:48.223Z,86.44
2023-01-31T07:26:48.300Z,85.92
2023-01-31T07:27:48.247Z,85.92
2023-01-31T07:28:48.204Z,86.19
2023-01-31T07:29:48.628Z,85.36
2023-01-31T07:30:48.227Z,85.61
2023-01-31T07:31:48.202Z,85.50
2023-01-31T07:32:48.236Z,85.61
2023-01-31T07:33:48.153Z,85.61
2023-01-31T07:34:48.146Z,85.40
2023-01-31T07:35:48.123Z,85.92
2023-01-31T07:36:48.076Z,86.37
2023-01-31T07:37:48.089Z,86.65
2023-01-31T07:38:48.074Z,86.29
2023-01-31T07:39:48.057Z,85.16
2023-01-31T07:40:48.061Z,84.84
2023-01-31T07:41:48.085Z,84.39
2023-01-31T07:42:48.052Z,84.53
2023-01-31T07:43:48.007Z,84.95
2023-01-31T07:44:48.004Z,84.53
2023-01-31T07:45:47.991Z,84.64
2023-01-31T07:46:48.164Z,85.05
2023-01-31T07:47:48.500Z,84.84
2023-01-31T07:48:48.301Z,85.16
2023-01-31T07:49:48.123Z,85.78
2023-01-31T07:50:48.099Z,85.32
2023-01-31T07:51:48.195Z,84.39
2023-01-31T07:52:47.920Z,84.29
2023-01-31T07:53:47.883Z,84.74
2023-01-31T07:54:47.876Z,84.97
2023-01-31T07:55:47.915Z,83.70
2023-01-31T07:56:47.845Z,82.87
2023-01-31T07:57:47.852Z,82.87
2023-01-31T07:58:48.501Z,82.87
2023-01-31T07:59:48.234Z,82.52
2023-01-31T08:00:48.359Z,82.45
2023-01-31T08:01:50.602Z,82.76
2023-01-31T08:02:48.223Z,83.18
2023-01-31T08:03:47.928Z,83.49
2023-01-31T08:04:47.912Z,83.25
2023-01-31T08:05:47.906Z,82.59
2023-01-31T08:06:47.733Z,81.76
2023-01-31T08:07:47.729Z,81.56
2023-01-31T08:08:47.708Z,81.24
2023-01-31T08:09:47.696Z,81.90
2023-01-31T08:10:47.712Z,82.42
2023-01-31T08:11:47.689Z,82.25
2023-01-31T08:12:49.914Z,82.83
2023-01-31T08:13:47.659Z,82.69
2023-01-31T08:14:47.639Z,82.07
2023-01-31T08:15:47.698Z,82.00
2023-01-31T08:16:47.675Z,82.52
2023-01-31T08:17:47.846Z,82.79
2023-01-31T08:18:47.602Z,82.07
2023-01-31T08:19:47.749Z,82.31
2023-01-31T08:20:47.568Z,82.52
2023-01-31T08:21:47.590Z,81.96
2023-01-31T08:22:47.548Z,82.10
2023-01-31T08:23:47.556Z,82.10
2023-01-31T08:24:47.528Z,82.00
2023-01-31T08:25:47.539Z,82.10
2023-01-31T08:26:47.688Z,81.24
2023-01-31T08:27:47.512Z,81.24
2023-01-31T08:28:47.503Z,80.73
2023-01-31T08:29:47.502Z,81.04
2023-01-31T08:30:56.066Z,80.93
2023-01-31T08:31:50.407Z,81.18
2023-01-31T08:32:47.432Z,81.90
2023-01-31T08:33:47.480Z,81.80
2023-01-31T08:34:47.448Z,81.80
2023-01-31T08:35:47.419Z,82.10
2023-01-31T08:36:47.456Z,82.45
2023-01-31T08:37:47.421Z,82.62
2023-01-31T08:38:47.413Z,82.42
2023-01-31T08:39:47.347Z,82.56
2023-01-31T08:40:47.341Z,82.31
2023-01-31T08:41:47.328Z,82.10
2023-01-31T08:42:47.321Z,82.45
2023-01-31T08:43:56.481Z,83.42
2023-01-31T08:44:48.299Z,83.32
2023-01-31T08:45:47.362Z,84.19
2023-01-31T08:46:47.456Z,84.15
2023-01-31T08:47:47.322Z,84.25
2023-01-31T08:48:47.593Z,85.02
2023-01-31T08:49:47.339Z,84.56
2023-01-31T08:50:47.325Z,84.56
2023-01-31T08:51:47.268Z,84.36
2023-01-31T08:52:47.257Z,84.97
2023-01-31T08:53:47.241Z,84.87
2023-01-31T08:54:47.191Z,84.00
2023-01-31T08:55:47.248Z,83.70
2023-01-31T08:56:47.221Z,84.11
2023-01-31T08:57:58.849Z,84.66
2023-01-31T08:58:48.287Z,84.36
2023-01-31T08:59:47.159Z,85.16
2023-01-31T09:00:47.170Z,86.29
2023-01-31T09:01:47.194Z,86.11
2023-01-31T09:02:47.160Z,85.39
2023-01-31T09:03:47.093Z,84.52
2023-01-31T09:04:47.114Z,83.93
2023-01-31T09:05:47.132Z,83.20
2023-01-31T09:06:47.113Z,83.28
2023-01-31T09:07:47.103Z,84.25
2023-01-31T09:08:47.025Z,84.73
2023-01-31T09:09:47.026Z,84.36
2023-01-31T09:10:47.054Z,84.11
2023-01-31T09:11:47.013Z,84.45
2023-01-31T09:12:47.052Z,84.66
2023-01-31T09:13:47.054Z,84.42
2023-01-31T09:14:47.039Z,83.86
2023-01-31T09:15:47.119Z,83.73
2023-01-31T09:16:47.096Z,84.95
2023-01-31T09:17:46.957Z,85.74
2023-01-31T09:18:46.983Z,85.60
2023-01-31T09:19:46.919Z,84.81
2023-01-31T09:20:46.916Z,85.35
2023-01-31T09:21:46.946Z,83.76
2023-01-31T09:22:46.864Z,83.49
2023-01-31T09:23:46.864Z,83.59
2023-01-31T09:24:46.954Z,84.36
2023-01-31T09:25:47.949Z,84.56
2023-01-31T09:26:46.871Z,84.52
2023-01-31T09:27:47.161Z,83.65
2023-01-31T09:28:46.868Z,82.93
2023-01-31T09:29:46.838Z,83.28
2023-01-31T09:30:46.959Z,84.21
2023-01-31T09:31:46.809Z,84.36
2023-01-31T09:32:46.816Z,84.00
2023-01-31T09:33:46.846Z,83.34
2023-01-31T09:34:46.735Z,83.45
2023-01-31T09:35:46.882Z,83.25
2023-01-31T09:36:46.746Z,83.07
2023-01-31T09:37:46.747Z,83.70
2023-01-31T09:38:46.720Z,83.28
2023-01-31T09:39:46.745Z,83.90
2023-01-31T09:40:46.677Z,82.93
2023-01-31T09:41:46.726Z,82.87
2023-01-31T09:42:46.728Z,83.80
2023-01-31T09:43:46.704Z,83.76
2023-01-31T09:44:46.637Z,83.80
2023-01-31T09:45:46.707Z,84.87
2023-01-31T09:46:46.642Z,85.18
2023-01-31T09:47:46.650Z,85.39
2023-01-31T09:48:46.580Z,85.28
2023-01-31T09:49:46.563Z,84.73
2023-01-31T09:50:46.568Z,84.77
2023-01-31T09:51:46.588Z,85.18
2023-01-31T09:52:46.623Z,84.83
2023-01-31T09:53:46.572Z,84.56
2023-01-31T09:54:46.583Z,84.73
2023-01-31T09:55:46.518Z,84.87
2023-01-31T09:56:46.511Z,85.91
2023-01-31T09:57:46.467Z,85.70
2023-01-31T09:58:46.487Z,85.80
2023-01-31T09:59:46.479Z,85.24
2023-01-31T10:00:46.599Z,84.59
2023-01-31T10:01:46.440Z,84.42
2023-01-31T10:02:46.453Z,84.52
2023-01-31T10:03:46.492Z,84.52
2023-01-31T10:04:46.481Z,84.17
2023-01-31T10:05:46.359Z,83.65
2023-01-31T10:06:46.428Z,82.65
2023-01-31T10:07:46.428Z,82.38
2023-01-31T10:08:46.348Z,82.48
2023-01-31T10:09:46.451Z,83.49
2023-01-31T10:10:46.395Z,83.39
2023-01-31T10:11:46.298Z,83.83
2023-01-31T10:12:46.317Z,82.89
2023-01-31T10:13:46.318Z,82.14
2023-01-31T10:14:46.308Z,81.58
2023-01-31T10:15:46.283Z,81.00
2023-01-31T10:16:46.250Z,81.17
2023-01-31T10:17:46.303Z,80.90
2023-01-31T10:18:46.239Z,81.21
2023-01-31T10:19:46.231Z,81.94
2023-01-31T10:20:46.255Z,82.93
2023-01-31T10:21:46.198Z,82.83
2023-01-31T10:22:46.234Z,82.73
2023-01-31T10:23:46.183Z,82.56
2023-01-31T10:24:46.166Z,83.39
2023-01-31T10:25:46.152Z,83.49
2023-01-31T10:26:46.346Z,83.80
2023-01-31T10:27:46.120Z,83.49
2023-01-31T10:28:46.119Z,83.25
2023-01-31T10:29:46.154Z,83.34
2023-01-31T10:30:46.241Z,83.14
2023-01-31T10:31:46.074Z,83.04
2023-01-31T10:32:46.063Z,83.25
2023-01-31T10:33:46.035Z,82.97
2023-01-31T10:34:46.025Z,83.49
2023-01-31T10:35:45.997Z,83.77
2023-01-31T10:36:46.003Z,85.78
2023-01-31T10:37:45.970Z,85.18
2023-01-31T10:38:45.976Z,84.00
2023-01-31T10:39:45.953Z,83.90
2023-01-31T10:40:45.954Z,82.93
2023-01-31T10:41:45.935Z,82.93
2023-01-31T10:42:45.908Z,83.25
2023-01-31T10:43:45.924Z,83.10
2023-01-31T10:44:45.896Z,82.83
2023-01-31T10:45:45.946Z,83.49
2023-01-31T10:46:45.901Z,83.65
2023-01-31T10:47:46.445Z,84.21
2023-01-31T10:48:47.298Z,83.65
2023-01-31T10:49:46.447Z,83.65
2023-01-31T10:50:46.309Z,84.00
2023-01-31T10:51:46.313Z,83.86
2023-01-31T10:52:48.893Z,84.28
2023-01-31T10:53:46.246Z,84.63
2023-01-31T10:54:46.116Z,85.04
2023-01-31T10:55:45.841Z,84.79
2023-01-31T10:56:45.830Z,83.97
2023-01-31T10:57:45.797Z,83.31
2023-01-31T10:58:45.775Z,82.48
2023-01-31T10:59:46.436Z,82.59
2023-01-31T11:00:45.785Z,83.14
2023-01-31T11:01:45.775Z,83.70
2023-01-31T11:02:45.729Z,84.52
2023-01-31T11:03:45.706Z,84.73
2023-01-31T11:04:45.645Z,84.38
2023-01-31T11:05:45.700Z,83.37
2023-01-31T11:06:45.676Z,82.48
2023-01-31T11:07:45.754Z,82.45
2023-01-31T11:08:45.676Z,82.79
2023-01-31T11:09:45.708Z,82.69
2023-01-31T11:10:45.615Z,82.34
2023-01-31T11:11:45.611Z,81.72
2023-01-31T11:12:45.572Z,82.34
2023-01-31T11:13:45.567Z,82.79
2023-01-31T11:14:45.541Z,82.96
2023-01-31T11:15:45.813Z,82.48
2023-01-31T11:16:45.553Z,83.51
2023-01-31T11:17:45.560Z,82.65
2023-01-31T11:18:45.551Z,82.34
2023-01-31T11:19:45.486Z,82.38
2023-01-31T11:20:45.501Z,83.10
2023-01-31T11:21:45.476Z,83.20
2023-01-31T11:22:45.457Z,82.55
2023-01-31T11:23:45.534Z,82.65
2023-01-31T11:24:45.476Z,82.34
2023-01-31T11:25:45.465Z,82.48
2023-01-31T11:26:45.434Z,82.55
2023-01-31T11:27:45.442Z,83.31
2023-01-31T11:28:45.428Z,83.31
2023-01-31T11:29:45.415Z,83.83
2023-01-31T11:30:45.420Z,83.58
2023-01-31T11:31:45.550Z,83.20
2023-01-31T11:32:45.344Z,83.51
2023-01-31T11:33:45.361Z,83.72
2023-01-31T11:34:45.434Z,84.44
2023-01-31T11:35:45.397Z,83.93
2023-01-31T11:36:45.316Z,83.17
2023-01-31T11:37:45.288Z,83.06
2023-01-31T11:38:45.395Z,83.03
2023-01-31T11:39:45.324Z,82.20
2023-01-31T11:40:45.331Z,81.99
2023-01-31T11:41:45.332Z,81.99
2023-01-31T11:42:45.351Z,81.99
2023-01-31T11:43:45.280Z,82.10
2023-01-31T11:44:45.250Z,82.30
2023-01-31T11:45:45.259Z,82.71
2023-01-31T11:46:45.239Z,82.86
2023-01-31T11:47:45.192Z,82.51
2023-01-31T11:48:45.401Z,82.40
2023-01-31T11:49:45.193Z,82.26
2023-01-31T11:50:45.205Z,81.51
2023-01-31T11:51:45.155Z,80.86
2023-01-31T11:52:45.132Z,81.93
2023-01-31T11:53:45.108Z,81.99
2023-01-31T11:54:45.215Z,82.40
2023-01-31T11:55:45.131Z,81.27
2023-01-31T11:56:45.090Z,81.68
2023-01-31T11:57:45.073Z,81.79
2023-01-31T11:58:45.275Z,81.79
2023-01-31T11:59:45.106Z,81.37
2023-01-31T12:00:45.074Z,81.27
2023-01-31T12:01:45.067Z,82.14
2023-01-31T12:02:45.009Z,82.30
2023-01-31T12:04:00.912Z,82.10
2023-01-31T12:04:46.078Z,81.89
2023-01-31T12:05:45.102Z,82.20
2023-01-31T12:06:45.059Z,81.99
2023-01-31T12:07:45.015Z,82.71
2023-01-31T12:08:44.963Z,82.14
2023-01-31T12:09:44.943Z,82.71
2023-01-31T12:10:44.918Z,82.61
2023-01-31T12:11:44.952Z,81.54
2023-01-31T12:12:44.939Z,80.82
2023-01-31T12:13:44.914Z,80.89
2023-01-31T12:14:44.874Z,81.23
2023-01-31T12:15:44.912Z,81.23
2023-01-31T12:16:44.935Z,81.20
2023-01-31T12:17:44.844Z,80.79
2023-01-31T12:18:44.872Z,80.79
2023-01-31T12:19:44.868Z,80.99
2023-01-31T12:20:44.878Z,80.06
2023-01-31T12:21:44.834Z,80.27
2023-01-31T12:22:44.835Z,80.89
2023-01-31T12:23:46.378Z,80.27
2023-01-31T12:24:44.780Z,80.58
2023-01-31T12:25:44.799Z,80.02
2023-01-31T12:26:44.938Z,79.82
2023-01-31T12:27:44.821Z,79.06
2023-01-31T12:28:44.769Z,79.20
2023-01-31T12:29:44.757Z,79.20
2023-01-31T12:30:44.849Z,78.96
2023-01-31T12:31:44.817Z,78.75
2023-01-31T12:32:44.715Z,79.16
2023-01-31T12:33:44.709Z,78.65
2023-01-31T12:34:59.088Z,78.51
2023-01-31T12:35:45.678Z,78.20
2023-01-31T12:36:44.657Z,77.38
2023-01-31T12:37:44.633Z,77.55
2023-01-31T12:38:44.787Z,76.93
2023-01-31T12:39:44.680Z,77.45
2023-01-31T12:40:44.578Z,76.79
2023-01-31T12:41:44.594Z,76.90
2023-01-31T12:42:44.597Z,77.14
2023-01-31T12:43:44.567Z,76.83
2023-01-31T12:44:44.568Z,76.69
2023-01-31T12:45:44.586Z,77.17
2023-01-31T12:46:44.519Z,77.00
2023-01-31T12:47:44.530Z,76.73
2023-01-31T12:48:44.533Z,76.73
2023-01-31T12:49:44.531Z,76.07
2023-01-31T12:50:44.514Z,76.18
2023-01-31T12:51:44.484Z,75.73
2023-01-31T12:52:44.502Z,75.38
2023-01-31T12:53:44.520Z,75.21